createdAt,value
2022-11-16T04:11:18.759Z,4.32
2022-11-16T04:14:43.068Z,5.43
2022-11-16T04:18:04.823Z,4.15
2022-11-16T04:21:36.048Z,5.47
2022-11-16T04:24:40.675Z,5.03
2022-11-16T04:28:01.803Z,5.85
2022-11-16T04:31:23.474Z,4.93
2022-11-16T04:34:45.225Z,5.53
2022-11-16T04:37:50.406Z,7.35
2022-11-16T04:40:53.037Z,6.90
2022-11-16T04:43:58.184Z,4.10
2022-11-16T04:47:06.819Z,5.55
2022-11-16T04:50:09.155Z,6.70
2022-11-16T04:53:11.659Z,6.57
2022-11-16T04:56:14.298Z,6.15
2022-11-16T04:59:16.766Z,5.32
2022-11-16T05:02:19.350Z,7.40
2022-11-16T05:05:22.680Z,7.15
2022-11-16T05:08:25.509Z,6.05
2022-11-16T05:11:28.388Z,5.85
2022-11-16T05:14:30.691Z,9.05
2022-11-16T05:17:33.748Z,5.43
2022-11-16T05:20:54.462Z,5.18
2022-11-16T05:24:15.906Z,8.07
2022-11-16T05:27:19.483Z,7.20
2022-11-16T05:30:22.922Z,7.87
2022-11-16T05:33:25.118Z,5.22
2022-11-16T05:36:27.557Z,6.72
2022-11-16T05:39:30.355Z,7.87
2022-11-16T05:42:33.181Z,7.05
2022-11-16T05:45:36.599Z,7.97
2022-11-16T05:48:39.411Z,10.40
2022-11-16T05:51:43.504Z,6.05
2022-11-16T05:54:45.979Z,6.93
2022-11-16T05:57:48.110Z,6.00
2022-11-16T06:00:51.131Z,7.20
2022-11-16T06:03:53.945Z,5.37
2022-11-16T06:06:56.170Z,6.20
2022-11-16T06:10:01.159Z,8.43
2022-11-16T06:13:03.472Z,7.82
2022-11-16T06:16:06.366Z,8.20
2022-11-16T06:19:09.224Z,7.07
2022-11-16T06:22:12.172Z,6.25
2022-11-16T06:25:14.388Z,7.62
2022-11-16T06:28:16.939Z,6.15
2022-11-16T06:31:19.040Z,7.07
2022-11-16T06:34:21.572Z,6.03
2022-11-16T06:37:23.697Z,7.80
2022-11-16T06:40:26.147Z,6.62
2022-11-16T06:43:28.756Z,6.40
2022-11-16T06:46:32.225Z,7.75
2022-11-16T06:49:34.433Z,7.62
2022-11-16T06:52:37.188Z,5.07
2022-11-16T06:55:39.559Z,6.28
2022-11-16T06:58:43.001Z,9.07
2022-11-16T07:01:45.638Z,7.15
2022-11-16T07:04:48.620Z,7.53
2022-11-16T07:07:55.233Z,8.38
2022-11-16T07:11:04.281Z,6.00
2022-11-16T07:14:08.378Z,7.37
2022-11-16T07:17:10.950Z,7.78
2022-11-16T07:20:13.370Z,8.75
2022-11-16T07:23:15.991Z,6.40
2022-11-16T07:26:19.584Z,7.72
2022-11-16T07:29:22.665Z,7.00
2022-11-16T07:32:35.641Z,7.00
2022-11-16T07:35:38.321Z,6.60
2022-11-16T07:38:40.871Z,7.72
2022-11-16T07:41:45.096Z,8.73
2022-11-16T07:44:47.751Z,6.72
2022-11-16T07:47:52.352Z,10.00
2022-11-16T07:51:03.873Z,7.10
2022-11-16T07:54:06.871Z,7.85
2022-11-16T07:57:08.945Z,9.77
2022-11-16T08:00:11.804Z,7.53
2022-11-16T08:03:18.195Z,7.75
2022-11-16T08:06:27.420Z,10.43
2022-11-16T08:09:29.890Z,7.65
2022-11-16T08:12:33.483Z,8.20
2022-11-16T08:15:36.062Z,8.38
2022-11-16T08:18:40.493Z,7.25
2022-11-16T08:21:43.037Z,10.45
2022-11-16T08:24:45.408Z,6.12
2022-11-16T08:27:47.757Z,9.43
2022-11-16T08:30:53.993Z,12.15
2022-11-16T08:33:56.780Z,10.23
2022-11-16T08:36:59.265Z,11.32
2022-11-16T08:40:03.510Z,8.95
2022-11-16T08:43:08.136Z,8.32
2022-11-16T08:46:11.151Z,9.27
2022-11-16T08:49:14.597Z,10.32
2022-11-16T08:52:16.879Z,7.43
2022-11-16T08:55:19.237Z,8.40
2022-11-16T08:58:21.475Z,8.38
2022-11-16T09:01:26.443Z,6.30
2022-11-16T09:04:32.737Z,8.70
2022-11-16T09:07:39.825Z,6.55
2022-11-16T09:10:41.904Z,9.35
2022-11-16T09:13:46.129Z,6.50
2022-11-16T09:16:48.232Z,9.85
2022-11-16T09:19:50.596Z,10.27
2022-11-16T09:22:52.649Z,8.63
2022-11-16T09:25:54.990Z,8.52
2022-11-16T09:28:59.869Z,9.32
2022-11-16T09:32:02.365Z,9.25
2022-11-16T09:35:04.671Z,11.02
2022-11-16T09:38:09.775Z,8.10
2022-11-16T09:41:47.200Z,9.23
2022-11-16T09:45:01.304Z,8.73
2022-11-16T09:48:06.550Z,8.95
2022-11-16T09:51:14.168Z,10.13
2022-11-16T09:54:20.571Z,11.77
2022-11-16T09:57:31.190Z,10.98
2022-11-16T10:00:35.621Z,9.68
2022-11-16T10:03:42.750Z,9.80
2022-11-16T10:06:51.318Z,11.30
2022-11-16T10:09:55.988Z,7.50
2022-11-16T10:13:14.654Z,10.80
2022-11-16T10:16:17.182Z,11.18
2022-11-16T10:19:38.347Z,8.00
2022-11-16T10:22:50.064Z,9.18
2022-11-16T10:26:02.548Z,9.10
2022-11-16T10:29:08.542Z,8.55
2022-11-16T10:32:18.396Z,9.97
2022-11-16T10:35:42.072Z,10.23
2022-11-16T10:38:44.520Z,8.70
2022-11-16T10:41:50.553Z,7.47
2022-11-16T10:45:11.374Z,7.20
2022-11-16T10:48:24.121Z,8.18
2022-11-16T10:51:26.314Z,8.88
2022-11-16T10:54:28.863Z,10.40
2022-11-16T10:57:55.654Z,10.50
2022-11-16T11:00:59.121Z,8.85
2022-11-16T11:04:30.261Z,8.10
2022-11-16T11:07:39.668Z,8.40
2022-11-16T11:10:42.476Z,8.90
2022-11-16T11:13:45.044Z,6.00
2022-11-16T11:16:52.778Z,8.98
2022-11-16T11:20:07.891Z,7.93
2022-11-16T11:23:23.517Z,7.75
2022-11-16T11:26:40.043Z,8.77
2022-11-16T11:29:43.278Z,8.73
2022-11-16T11:32:47.009Z,6.35
2022-11-16T11:36:06.347Z,10.10
2022-11-16T11:39:11.515Z,7.80
2022-11-16T11:42:13.524Z,7.47
2022-11-16T11:45:15.878Z,6.82
2022-11-16T11:48:29.644Z,7.43
2022-11-16T11:51:40.504Z,8.23
2022-11-16T11:54:49.164Z,7.97
2022-11-16T11:57:55.633Z,7.10
2022-11-16T12:01:24.841Z,6.93
2022-11-16T12:05:05.896Z,6.93
2022-11-16T12:08:32.575Z,8.95
2022-11-16T12:11:59.692Z,6.93
2022-11-16T12:15:22.924Z,6.35
2022-11-16T12:18:41.093Z,5.32
2022-11-16T12:22:05.845Z,8.95
2022-11-16T12:25:27.787Z,6.80
2022-11-16T12:28:51.094Z,5.25
2022-11-16T12:32:06.284Z,6.85
2022-11-16T12:35:43.805Z,7.18
2022-11-16T12:42:05.806Z,8.43
2022-11-16T12:45:32.459Z,5.18
2022-11-16T12:48:49.504Z,5.70
2022-11-16T12:58:55.120Z,6.70
2022-11-16T13:02:16.057Z,8.02
2022-11-16T13:05:34.049Z,6.68
2022-11-16T13:08:58.983Z,6.57
2022-11-16T13:12:05.195Z,5.87
2022-11-16T13:15:19.074Z,6.82
2022-11-16T13:18:23.123Z,5.05
2022-11-16T13:21:35.712Z,8.45
2022-11-16T13:24:49.918Z,5.03
2022-11-16T13:28:42.524Z,5.00
2022-11-16T13:32:07.097Z,5.43
2022-11-16T13:35:15.466Z,4.22
2022-11-16T13:38:52.135Z,5.60
2022-11-16T13:42:14.464Z,5.85
2022-11-16T13:45:21.919Z,5.25
2022-11-16T13:48:34.499Z,6.53
2022-11-16T13:51:37.244Z,4.75
2022-11-16T13:54:45.842Z,4.55
2022-11-16T13:57:54.743Z,3.95
2022-11-16T14:01:04.499Z,5.60
2022-11-16T14:04:41.962Z,6.30
2022-11-16T14:07:50.500Z,3.47
2022-11-16T14:10:52.871Z,3.72
2022-11-16T14:13:55.473Z,4.43
2022-11-16T14:16:57.840Z,3.60
2022-11-16T14:19:59.928Z,3.95
2022-11-16T14:23:26.801Z,5.53
2022-11-16T14:27:09.409Z,3.47
2022-11-16T14:30:24.541Z,4.30
2022-11-16T14:33:35.972Z,4.15
2022-11-16T14:36:44.942Z,5.65
2022-11-16T14:39:48.381Z,2.67
2022-11-16T14:43:15.261Z,4.10
2022-11-16T14:46:35.031Z,3.17
2022-11-16T14:49:37.846Z,3.78
2022-11-16T14:52:45.065Z,4.10
2022-11-16T14:55:47.397Z,3.95
2022-11-16T14:58:56.968Z,2.60
2022-11-16T15:02:23.738Z,3.97
2022-11-16T15:05:35.420Z,4.12
2022-11-16T15:08:45.182Z,3.87
2022-11-16T15:12:07.984Z,2.80
2022-11-16T15:15:10.241Z,4.93
2022-11-16T15:18:17.385Z,4.07
2022-11-16T15:21:23.764Z,4.03
2022-11-16T15:24:31.413Z,3.83
2022-11-16T15:27:38.589Z,3.87
2022-11-16T15:30:41.227Z,4.07
2022-11-16T15:33:45.893Z,3.62
2022-11-16T15:36:48.790Z,6.20
2022-11-16T15:39:51.805Z,2.62
2022-11-16T15:42:54.261Z,4.20
2022-11-16T15:45:57.761Z,3.40
2022-11-16T15:49:00.396Z,3.12
2022-11-16T15:52:03.056Z,4.80
2022-11-16T15:55:05.524Z,3.40
2022-11-16T15:58:25.721Z,4.43
2022-11-16T16:01:30.209Z,3.58
2022-11-16T16:04:32.705Z,2.60
2022-11-16T16:07:39.531Z,4.78
2022-11-16T16:10:42.176Z,3.47
2022-11-16T16:13:56.546Z,3.10
2022-11-16T16:17:00.535Z,5.45
2022-11-16T16:20:05.655Z,4.35
2022-11-16T16:23:17.564Z,3.90
2022-11-16T16:26:20.486Z,3.12
2022-11-16T16:29:22.785Z,3.87
